Time;durP1;ratioP1;P1;durP2;ratioP2;P2;SDS_P1;SDS_P2;PMS_P1;PMS_P2;Temp;Humidity;BMP_temperature;BMP_pressure;BME280_temperature;BME280_humidity;BME280_pressure;Samples;Min_cycle;Max_cycle;Signal;HPM_P1;HPM_P2
2021/03/21 00:02:06;;;;;;;10.38;6.72;;;;;;;1.39;100.00;99229.01;1735199;81;21239;-64
2021/03/21 00:04:37;;;;;;;9.38;6.22;;;;;;;1.37;100.00;99226.36;1759326;81;21066;-63
2021/03/21 00:07:08;;;;;;;10.80;6.35;;;;;;;1.36;100.00;99215.92;1760781;81;21281;-63
2021/03/21 00:09:38;;;;;;;10.25;7.12;;;;;;;1.34;100.00;99216.28;1760771;81;21293;-63
2021/03/21 00:12:11;;;;;;;10.15;6.20;;;;;;;1.32;100.00;99223.16;1743910;81;21023;-63
2021/03/21 00:14:40;;;;;;;8.33;6.17;;;;;;;1.31;100.00;99216.19;1761608;81;21595;-63
2021/03/21 00:17:10;;;;;;;10.85;6.83;;;;;;;1.31;100.00;99220.09;1759511;81;21194;-63
2021/03/21 00:19:40;;;;;;;10.53;6.83;;;;;;;1.30;100.00;99217.02;1761862;81;21647;-64
2021/03/21 00:22:09;;;;;;;9.23;6.37;;;;;;;1.26;100.00;99206.95;1739716;81;21729;-63
2021/03/21 00:24:39;;;;;;;8.80;6.33;;;;;;;1.24;100.00;99213.40;1737467;82;21258;-64
2021/03/21 00:27:10;;;;;;;9.18;6.42;;;;;;;1.23;100.00;99211.63;1745479;81;21595;-62
2021/03/21 00:29:42;;;;;;;10.18;6.75;;;;;;;1.20;100.00;99209.36;1761903;81;21278;-64
2021/03/21 00:32:11;;;;;;;8.18;6.40;;;;;;;1.19;100.00;99204.58;1740983;81;21201;-64
2021/03/21 00:34:44;;;;;;;8.65;6.33;;;;;;;1.18;100.00;99207.13;1737493;82;21195;-64
2021/03/21 00:37:17;;;;;;;10.65;6.60;;;;;;;1.15;100.00;99204.43;1737653;81;21085;-64
2021/03/21 00:39:47;;;;;;;8.68;6.62;;;;;;;1.12;100.00;99204.33;1738263;81;20964;-64
2021/03/21 00:42:19;;;;;;;9.05;5.95;;;;;;;1.11;100.00;99199.55;1741019;81;21142;-64
2021/03/21 00:44:49;;;;;;;8.57;6.20;;;;;;;1.12;100.00;99197.84;1743839;81;21385;-64
2021/03/21 00:47:19;;;;;;;8.65;6.25;;;;;;;1.10;100.00;99195.20;1743588;82;21105;-64
2021/03/21 00:49:49;;;;;;;8.60;6.25;;;;;;;1.08;100.00;99200.76;1757681;81;21073;-64
2021/03/21 00:52:25;;;;;;;14.23;5.85;;;;;;;1.07;100.00;99195.52;1737399;82;21077;-64
2021/03/21 00:54:56;;;;;;;8.23;6.30;;;;;;;1.08;100.00;99187.77;1737811;81;21216;-64
2021/03/21 00:57:27;;;;;;;9.28;6.05;;;;;;;1.09;100.00;99188.66;1737471;82;21394;-64
2021/03/21 00:59:57;;;;;;;8.30;6.00;;;;;;;1.08;100.00;99185.59;1761378;81;21203;-64
2021/03/21 01:02:28;;;;;;;9.70;6.30;;;;;;;1.08;100.00;99185.59;1760670;81;21157;-63
2021/03/21 01:04:59;;;;;;;8.50;6.28;;;;;;;1.07;100.00;99178.63;1761833;81;21152;-63
2021/03/21 01:07:31;;;;;;;11.43;6.90;;;;;;;1.06;100.00;99182.94;1761913;81;21117;-63
2021/03/21 01:10:07;;;;;;;7.47;6.28;;;;;;;1.09;100.00;99188.23;1754510;81;21041;-64
2021/03/21 01:12:42;;;;;;;11.28;6.65;;;;;;;1.07;100.00;99191.62;1761222;81;20997;-64
2021/03/21 01:15:17;;;;;;;9.25;6.17;;;;;;;1.04;100.00;99187.20;1761832;81;21152;-64
2021/03/21 01:17:51;;;;;;;8.88;6.17;;;;;;;1.04;100.00;99187.63;1761941;80;21034;-63
2021/03/21 01:20:24;;;;;;;9.00;6.50;;;;;;;1.03;100.00;99177.65;1762156;81;21060;-63
2021/03/21 01:22:54;;;;;;;;;;;;;;;1.03;100.00;99176.35;1767276;81;22198;-63
2021/03/21 01:25:27;;;;;;;8.60;5.65;;;;;;;1.02;100.00;99174.59;1755565;81;20501;-63
2021/03/21 01:27:57;;;;;;;8.28;5.90;;;;;;;0.99;100.00;99178.80;1743630;81;21199;-64
2021/03/21 01:30:29;;;;;;;7.47;5.80;;;;;;;0.99;100.00;99172.30;1737731;81;21168;-64
2021/03/21 01:32:59;;;;;;;8.80;6.50;;;;;;;0.99;100.00;99176.20;1737607;82;21127;-63
2021/03/21 01:35:31;;;;;;;8.35;5.78;;;;;;;0.97;100.00;99177.45;1737791;82;21579;-63
2021/03/21 01:38:04;;;;;;;9.50;6.67;;;;;;;0.97;100.00;99179.17;1737577;81;20950;-64
2021/03/21 01:40:35;;;;;;;;;;;;;;;0.99;100.00;99181.40;1739895;82;20954;-64
2021/03/21 01:43:06;;;;;;;9.10;6.40;;;;;;;0.94;100.00;99179.50;1737552;82;20218;-64
2021/03/21 01:45:50;;;;;;;8.68;6.00;;;;;;;0.97;100.00;99176.16;1737648;82;21124;-64
2021/03/21 01:48:57;;;;;;;11.05;6.95;;;;;;;0.98;100.00;99184.41;1737719;82;21518;-64
2021/03/21 01:51:33;;;;;;;9.75;6.60;;;;;;;0.99;100.00;99180.98;1741584;81;21137;-63
2021/03/21 01:54:07;;;;;;;9.43;6.87;;;;;;;1.01;100.00;99180.62;1674374;84;21087;-61
2021/03/21 01:56:38;;;;;;;9.83;6.85;;;;;;;1.00;100.00;99181.87;1714021;83;20971;-61
2021/03/21 01:59:15;;;;;;;8.13;6.50;;;;;;;1.00;100.00;99171.48;1714467;83;21035;-61
2021/03/21 02:01:45;;;;;;;9.53;6.95;;;;;;;1.02;100.00;99173.70;1711860;83;21506;-61
2021/03/21 02:04:15;;;;;;;10.45;6.80;;;;;;;1.00;100.00;99176.25;1720635;82;21116;-61
2021/03/21 02:07:10;;;;;;;9.58;6.92;;;;;;;1.00;100.00;99174.95;1703272;84;21496;-61
2021/03/21 02:09:57;;;;;;;9.05;5.95;;;;;;;0.99;100.00;99177.09;1726561;82;21668;-61
2021/03/21 02:13:07;;;;;;;9.78;6.65;;;;;;;0.99;100.00;99179.69;1712821;83;21111;-61
2021/03/21 02:15:47;;;;;;;14.03;7.33;;;;;;;0.98;100.00;99174.44;1712393;83;21019;-60
2021/03/21 02:18:25;;;;;;;11.88;7.92;;;;;;;0.93;100.00;99171.66;1712718;83;21210;-61
2021/03/21 02:21:35;;;;;;;11.35;7.15;;;;;;;0.92;100.00;99165.59;1713981;83;21150;-61
2021/03/21 02:24:33;;;;;;;8.70;6.55;;;;;;;0.91;100.00;99165.13;1712767;83;20909;-61
2021/03/21 02:27:12;;;;;;;10.32;7.00;;;;;;;0.88;100.00;99162.42;1712758;83;21059;-61
2021/03/21 02:29:53;;;;;;;10.08;7.00;;;;;;;0.87;100.00;99155.47;1689891;83;21368;-61
2021/03/21 02:32:34;;;;;;;9.60;7.33;;;;;;;0.87;100.00;99162.37;1725859;82;21044;-60
2021/03/21 02:35:34;;;;;;;9.73;7.30;;;;;;;0.93;100.00;99162.16;1809490;77;22483;-60
2021/03/21 02:38:12;;;;;;;10.65;7.05;;;;;;;0.87;100.00;99163.67;1777462;79;20912;-61
2021/03/21 02:40:49;;;;;;;11.08;6.58;;;;;;;0.91;100.00;99164.23;1777644;79;21184;-61
2021/03/21 02:43:29;;;;;;;9.15;6.90;;;;;;;0.88;100.00;99170.22;1777837;79;20974;-61
2021/03/21 02:46:06;;;;;;;8.85;6.80;;;;;;;0.88;100.00;99164.14;1807671;79;20942;-61
2021/03/21 02:48:48;;;;;;;11.18;7.33;;;;;;;0.86;100.00;99165.39;1809646;78;20938;-61
2021/03/21 02:51:25;;;;;;;10.55;7.37;;;;;;;0.82;100.00;99158.75;1809702;78;20915;-61
2021/03/21 02:53:58;;;;;;;11.20;7.20;;;;;;;0.80;100.00;99161.30;1781353;79;21132;-61
2021/03/21 02:56:30;;;;;;;14.23;7.40;;;;;;;0.79;100.00;99167.73;1777578;79;20994;-61
2021/03/21 02:59:08;;;;;;;10.05;7.65;;;;;;;0.78;100.00;99163.37;1777791;80;21465;-61
2021/03/21 03:01:51;;;;;;;14.55;8.28;;;;;;;0.77;100.00;99165.09;1777730;79;20942;-61
2021/03/21 03:04:31;;;;;;;10.75;7.00;;;;;;;0.80;100.00;99165.61;1779795;79;20915;-61
2021/03/21 03:07:24;;;;;;;10.88;7.85;;;;;;;0.79;100.00;99163.84;1777861;80;20946;-61
2021/03/21 03:10:00;;;;;;;10.50;7.22;;;;;;;0.76;100.00;99159.44;1774558;79;20930;-61
2021/03/21 03:12:35;;;;;;;10.55;7.72;;;;;;;0.75;100.00;99163.28;1749084;80;21125;-61
2021/03/21 03:15:11;;;;;;;11.45;7.62;;;;;;;0.74;100.00;99162.81;1779808;78;21465;-59
2021/03/21 03:17:50;;;;;;;10.70;7.40;;;;;;;0.72;100.00;99162.77;1777689;79;21485;-60
2021/03/21 03:20:25;;;;;;;10.53;7.17;;;;;;;0.71;100.00;99160.12;1777641;79;21258;-59
2021/03/21 03:23:03;;;;;;;10.63;7.35;;;;;;;0.69;100.00;99157.47;1777536;80;20965;-59
2021/03/21 03:25:58;;;;;;;8.85;7.17;;;;;;;0.67;100.00;99155.66;1779825;78;20951;-60
2021/03/21 03:28:42;;;;;;;10.00;6.83;;;;;;;0.66;100.00;99158.67;1777594;79;21088;-59
2021/03/21 03:31:25;;;;;;;10.38;7.53;;;;;;;0.66;100.00;99156.07;1777345;79;21465;-59
2021/03/21 03:33:54;;;;;;;10.53;7.75;;;;;;;0.66;100.00;99154.77;1777583;79;22277;-59
2021/03/21 03:36:23;;;;;;;10.72;7.78;;;;;;;0.68;100.00;99155.70;1806412;78;20934;-59
2021/03/21 03:38:52;;;;;;;12.45;7.50;;;;;;;0.69;100.00;99153.99;1810078;79;20914;-59
2021/03/21 03:41:43;;;;;;;11.30;7.92;;;;;;;0.69;100.00;99154.87;1810109;78;20927;-59
2021/03/21 03:44:29;;;;;;;11.83;7.95;;;;;;;0.70;100.00;99152.75;1789614;79;20882;-60
2021/03/21 03:47:03;;;;;;;11.57;7.58;;;;;;;0.68;100.00;99156.13;1776766;79;21291;-59
2021/03/21 03:49:59;;;;;;;11.18;8.60;;;;;;;0.63;100.00;99158.16;1777494;79;20934;-59
2021/03/21 03:52:57;;;;;;;11.15;8.33;;;;;;;0.62;100.00;99157.69;1777624;79;20954;-59
2021/03/21 03:55:38;;;;;;;12.55;8.23;;;;;;;0.64;100.00;99159.03;1807685;79;21494;-59
2021/03/21 03:58:21;;;;;;;11.05;7.90;;;;;;;0.63;100.00;99155.97;1809539;79;20942;-59
2021/03/21 04:01:10;;;;;;;11.97;8.60;;;;;;;0.57;100.00;99152.76;1809465;79;21986;-59
2021/03/21 04:04:00;;;;;;;11.00;7.90;;;;;;;0.55;100.00;99159.61;1809070;78;20942;-60
2021/03/21 04:06:40;;;;;;;9.88;7.62;;;;;;;0.54;100.00;99145.28;1778529;79;20950;-59
2021/03/21 04:09:17;;;;;;;18.35;8.28;;;;;;;0.48;100.00;99143.78;1777623;80;20934;-60
2021/03/21 04:12:06;;;;;;;11.63;8.63;;;;;;;0.45;100.00;99144.95;1777600;79;20954;-60
2021/03/21 04:15:05;;;;;;;12.60;8.78;;;;;;;0.45;100.00;99144.95;1750113;80;22066;-60
2021/03/21 04:17:39;;;;;;;11.28;8.53;;;;;;;0.44;100.00;99140.17;1752867;79;20978;-60
2021/03/21 04:20:35;;;;;;;12.73;8.50;;;;;;;0.44;100.00;99146.66;1777648;80;20966;-59
2021/03/21 04:23:24;;;;;;;11.48;8.38;;;;;;;0.43;100.00;99147.49;1777574;79;20934;-60
2021/03/21 04:25:57;;;;;;;15.05;8.78;;;;;;;0.43;100.00;99146.20;1769194;79;20891;-60
2021/03/21 04:28:37;;;;;;;12.80;8.90;;;;;;;0.45;100.00;99144.53;1750239;80;21370;-59
2021/03/21 04:31:07;;;;;;;11.57;8.50;;;;;;;0.48;100.00;99148.98;1804279;79;20982;-59
2021/03/21 04:33:44;;;;;;;12.45;8.63;;;;;;;0.45;100.00;99146.24;1809370;78;21564;-60
2021/03/21 04:36:17;;;;;;;11.60;8.33;;;;;;;0.45;100.00;99144.53;1732556;81;20919;-59
2021/03/21 04:38:55;;;;;;;12.45;8.80;;;;;;;0.49;100.00;99142.54;1749765;79;20895;-60
2021/03/21 04:41:30;;;;;;;11.85;9.10;;;;;;;0.54;100.00;99148.77;1772587;79;20970;-60
2021/03/21 04:44:07;;;;;;;11.57;8.30;;;;;;;0.55;100.00;99149.64;1745153;81;20946;-59
2021/03/21 04:46:41;;;;;;;13.45;9.50;;;;;;;0.54;100.00;99155.67;1791519;78;20970;-60
2021/03/21 04:49:11;;;;;;;12.30;8.80;;;;;;;0.49;100.00;99150.74;1804457;78;21472;-60
2021/03/21 04:51:42;;;;;;;12.63;9.40;;;;;;;0.45;100.00;99144.95;1804447;79;20935;-60
2021/03/21 04:54:20;;;;;;;12.85;9.30;;;;;;;0.40;100.00;99141.31;1804365;78;22350;-60
2021/03/21 04:57:17;;;;;;;13.35;10.15;;;;;;;0.38;100.00;99143.86;1788150;79;20970;-60
2021/03/21 04:59:46;;;;;;;11.70;8.65;;;;;;;0.29;100.00;99152.22;1782151;79;20935;-60
2021/03/21 05:02:31;;;;;;;12.58;9.35;;;;;;;0.26;100.00;99152.52;1775797;79;20930;-59
2021/03/21 05:05:08;;;;;;;12.47;9.00;;;;;;;0.29;100.00;99149.63;1804355;78;20911;-59
2021/03/21 05:07:48;;;;;;;11.75;9.10;;;;;;;0.35;100.00;99151.54;1783538;79;21368;-59
2021/03/21 05:10:34;;;;;;;12.88;9.10;;;;;;;0.39;100.00;99149.52;1772665;79;21529;-60
2021/03/21 05:13:07;;;;;;;12.53;9.53;;;;;;;0.44;100.00;99144.48;1772664;81;21510;-59
2021/03/21 05:15:45;;;;;;;;;;;;;;;0.50;100.00;99149.49;1747859;81;20935;-59
2021/03/21 05:18:32;;;;;;;12.88;8.73;;;;;;;0.51;100.00;99142.17;1764945;81;20223;-59
2021/03/21 05:21:27;;;;;;;12.93;8.80;;;;;;;0.52;100.00;99143.94;1740677;81;22363;-59
2021/03/21 05:24:09;;;;;;;13.55;9.75;;;;;;;0.57;100.00;99150.58;1772535;81;20954;-60
2021/03/21 05:26:57;;;;;;;10.95;8.55;;;;;;;0.61;100.00;99148.55;1772816;81;25481;-60
2021/03/21 05:29:53;;;;;;;11.22;8.63;;;;;;;0.65;100.00;99151.72;1695014;81;20942;-59
2021/03/21 05:32:22;;;;;;;11.53;8.60;;;;;;;0.68;100.00;99153.11;1742023;81;20947;-61
2021/03/21 05:34:53;;;;;;;11.38;8.58;;;;;;;0.69;100.00;99152.69;1739808;81;21455;-60
2021/03/21 05:37:45;;;;;;;13.15;9.60;;;;;;;0.71;100.00;99154.92;1738687;81;20950;-60
2021/03/21 05:40:26;;;;;;;11.50;8.98;;;;;;;0.73;100.00;99150.66;1766457;81;20967;-60
2021/03/21 05:43:41;;;;;;;12.18;9.35;;;;;;;0.77;100.00;99155.13;1744253;81;21070;-60
2021/03/21 05:46:57;;;;;;;12.95;9.20;;;;;;;0.80;100.00;99150.03;1732232;81;20916;-59
2021/03/21 05:49:50;;;;;;;11.20;8.65;;;;;;;0.92;100.00;99136.14;1810879;78;22787;-60
2021/03/21 05:52:52;;;;;;;12.45;9.48;;;;;;;0.90;100.00;99142.58;1777710;79;20875;-61
2021/03/21 05:55:54;;;;;;;14.23;9.30;;;;;;;1.03;100.00;99143.00;1837208;76;22197;-61
2021/03/21 05:58:47;;;;;;;12.28;8.30;;;;;;;1.07;100.00;99136.65;1807357;79;20919;-62
2021/03/21 06:02:04;;;;;;;13.00;9.08;;;;;;;1.18;100.00;99134.38;1777021;80;21205;-59
2021/03/21 06:05:00;;;;;;;14.15;9.75;;;;;;;1.26;100.00;99134.19;1711403;82;21041;-60
2021/03/21 06:07:57;;;;;;;12.50;9.73;;;;;;;1.38;100.00;99136.28;1772702;78;21045;-61
2021/03/21 06:11:10;;;;;;;14.38;10.40;;;;;;;1.46;100.00;99137.00;1745461;80;21484;-60
2021/03/21 06:14:16;;;;;;;13.43;10.10;;;;;;;1.55;100.00;99135.09;1777627;79;21603;-61
2021/03/21 06:17:17;;;;;;;14.60;9.28;;;;;;;1.59;100.00;99130.44;1720174;81;21295;-59
2021/03/21 06:20:15;;;;;;;12.63;9.88;;;;;;;1.61;100.00;99126.58;1714829;82;21022;-61
2021/03/21 06:23:24;;;;;;;12.63;10.13;;;;;;;1.66;100.00;99129.78;1727423;81;20895;-62
2021/03/21 06:26:07;;;;;;;12.53;9.73;;;;;;;1.75;100.00;99123.95;1740629;81;20931;-61
2021/03/21 06:29:05;;;;;;;13.70;9.25;;;;;;;1.87;100.00;99122.58;1740641;81;21453;-60
2021/03/21 06:32:06;;;;;;;12.95;9.80;;;;;;;1.97;100.00;99121.14;1725506;80;21383;-60
2021/03/21 06:35:12;;;;;;;13.90;9.83;;;;;;;2.07;100.00;99115.34;1727921;82;20947;-59
2021/03/21 06:38:08;;;;;;;18.75;10.55;;;;;;;2.13;100.00;99104.22;1808282;78;21822;-59
2021/03/21 06:40:51;;;;;;;12.98;10.08;;;;;;;2.15;100.00;99104.72;1777510;80;20951;-59
2021/03/21 06:43:32;;;;;;;12.85;9.73;;;;;;;2.17;100.00;99102.16;1713316;81;21203;-60
2021/03/21 06:46:15;;;;;;;12.93;10.08;;;;;;;2.23;100.00;99105.34;1733936;82;21009;-62
2021/03/21 06:49:39;;;;;;;14.35;11.35;;;;;;;2.24;100.00;99100.17;1749792;79;20934;-61
2021/03/21 06:52:29;;;;;;;;;;;;;;;2.28;100.00;99103.31;1712059;82;20929;-61
2021/03/21 06:55:41;;;;;;;12.25;9.33;;;;;;;2.28;100.00;99099.41;1725925;81;20487;-61
2021/03/21 06:58:52;;;;;;;12.43;9.05;;;;;;;2.33;100.00;99101.71;1740601;81;21434;-61
2021/03/21 07:01:43;;;;;;;14.13;11.28;;;;;;;2.43;100.00;99095.92;1741489;81;21603;-61
2021/03/21 07:04:31;;;;;;;12.10;9.73;;;;;;;2.48;100.00;99090.41;1692551;83;21038;-61
2021/03/21 07:07:31;;;;;;;14.75;11.53;;;;;;;2.51;100.00;99085.28;1714880;83;21006;-62
2021/03/21 07:10:45;;;;;;;14.10;9.65;;;;;;;2.51;100.00;99083.09;1748989;79;20997;-63
2021/03/21 07:13:40;;;;;;;12.37;10.03;;;;;;;2.57;100.00;99083.67;1744065;79;21366;-62
2021/03/21 07:16:42;;;;;;;11.03;8.45;;;;;;;2.66;100.00;99079.98;1678305;83;21072;-63
2021/03/21 07:19:33;;;;;;;12.58;10.05;;;;;;;2.73;100.00;99081.89;1719262;82;21014;-62
2021/03/21 07:22:55;;;;;;;15.25;10.38;;;;;;;2.83;100.00;99077.35;1730436;82;20904;-63
2021/03/21 07:25:55;;;;;;;13.32;9.88;;;;;;;2.80;100.00;99072.07;1729884;82;20923;-70
2021/03/21 07:28:49;;;;;;;12.30;9.58;;;;;;;2.79;100.00;99078.13;1730150;82;21161;-61
2021/03/21 07:31:33;;;;;;;13.05;9.70;;;;;;;2.87;100.00;99067.91;1732103;81;21490;-61
2021/03/21 07:34:32;;;;;;;15.65;11.60;;;;;;;2.97;100.00;99073.37;1724878;81;20950;-61
2021/03/21 07:37:40;;;;;;;14.53;11.28;;;;;;;3.08;100.00;99070.58;1719436;81;21512;-60
2021/03/21 07:40:42;;;;;;;14.93;10.82;;;;;;;3.20;100.00;99059.96;1724996;81;20891;-61
2021/03/21 07:43:35;;;;;;;13.75;10.98;;;;;;;3.30;100.00;99055.40;1738334;80;21146;-60
2021/03/21 07:46:41;;;;;;;16.40;11.28;;;;;;;3.32;100.00;99051.13;1733835;82;20911;-60
2021/03/21 07:49:46;;;;;;;12.25;9.48;;;;;;;3.33;100.00;99053.77;1743958;82;21584;-61
2021/03/21 07:52:27;;;;;;;14.50;10.30;;;;;;;3.41;100.00;99048.71;1714371;82;21476;-60
2021/03/21 07:55:08;;;;;;;15.50;10.85;;;;;;;3.52;100.00;99043.71;1714285;83;21010;-60
2021/03/21 07:57:57;;;;;;;13.30;10.65;;;;;;;3.63;100.00;99046.11;1715043;82;21360;-66
2021/03/21 08:00:27;;;;;;;13.43;10.40;;;;;;;3.68;100.00;99041.44;1714206;82;21022;-60
2021/03/21 08:03:24;;;;;;;16.45;10.78;;;;;;;3.72;100.00;99039.77;1714348;82;20979;-60
2021/03/21 08:05:55;;;;;;;13.10;10.15;;;;;;;3.79;100.00;99036.03;1714292;83;21010;-60
2021/03/21 08:08:27;;;;;;;14.98;10.75;;;;;;;3.90;100.00;99035.34;1716205;82;21220;-65
2021/03/21 08:11:01;;;;;;;14.75;10.93;;;;;;;3.97;100.00;99027.66;1714513;82;21697;-58
2021/03/21 08:13:45;;;;;;;15.23;12.68;;;;;;;4.06;100.00;99028.24;1701246;83;21037;-59
2021/03/21 08:16:25;;;;;;;16.15;11.43;;;;;;;4.18;100.00;99021.92;1728455;80;21122;-59
2021/03/21 08:18:56;;;;;;;16.55;12.05;;;;;;;4.19;100.00;99020.20;1726234;82;21093;-59
2021/03/21 08:21:30;;;;;;;15.13;11.65;;;;;;;4.20;100.00;99029.36;1719288;81;21041;-59
2021/03/21 08:24:22;;;;;;;15.48;11.38;;;;;;;4.25;100.00;99016.38;1725405;82;22099;-58
2021/03/21 08:26:52;;;;;;;15.72;12.13;;;;;;;4.30;100.00;99016.06;1786840;79;21021;-59
2021/03/21 08:29:26;;;;;;;15.03;12.20;;;;;;;4.33;100.00;99017.42;1784612;79;20940;-59
2021/03/21 08:32:10;;;;;;;15.40;11.45;;;;;;;4.40;100.00;99014.93;1724791;81;20991;-59
2021/03/21 08:34:45;;;;;;;15.75;12.35;;;;;;;4.51;100.00;99001.16;1729639;81;21451;-59
2021/03/21 08:37:35;;;;;;;16.62;13.60;;;;;;;4.62;100.00;98990.45;1750322;80;21200;-64
2021/03/21 08:40:33;;;;;;;17.05;13.03;;;;;;;4.70;100.00;98994.05;1726330;82;21005;-58
2021/03/21 08:43:14;;;;;;;15.72;12.75;;;;;;;4.80;100.00;98981.59;1739204;82;21005;-59
2021/03/21 08:45:49;;;;;;;14.80;11.88;;;;;;;4.97;100.00;98986.63;1735435;82;20997;-59
2021/03/21 08:48:35;;;;;;;16.75;13.00;;;;;;;5.11;100.00;98982.00;1736526;82;21049;-60
2021/03/21 08:51:16;;;;;;;15.28;12.03;;;;;;;5.25;100.00;98985.27;1735485;80;22417;-59
2021/03/21 08:54:11;;;;;;;14.45;11.18;;;;;;;5.23;100.00;98975.65;1735015;80;21152;-59
2021/03/21 08:56:59;;;;;;;14.87;12.25;;;;;;;5.31;100.00;98984.47;1738626;80;21204;-60
2021/03/21 08:59:40;;;;;;;18.07;13.53;;;;;;;5.46;100.00;98976.80;1752053;81;21052;-60
2021/03/21 09:02:16;;;;;;;15.10;12.73;;;;;;;5.60;100.00;98980.44;1742850;82;21065;-60
2021/03/21 09:05:03;;;;;;;15.78;12.30;;;;;;;5.60;100.00;98980.44;1751637;82;21196;-59
2021/03/21 09:07:36;;;;;;;17.75;13.53;;;;;;;5.60;100.00;98970.41;1750742;80;21025;-59
2021/03/21 09:10:20;;;;;;;15.63;12.25;;;;;;;5.66;99.70;98967.85;1751166;82;21618;-60
2021/03/21 09:12:55;;;;;;;14.45;11.55;;;;;;;5.65;98.64;98966.97;1744980;82;21061;-60
2021/03/21 09:15:30;;;;;;;18.48;14.78;;;;;;;5.78;98.08;98963.20;1731768;81;21041;-59
2021/03/21 09:18:20;;;;;;;20.85;14.20;;;;;;;5.90;97.22;98962.05;1733903;81;21208;-67
2021/03/21 09:21:24;;;;;;;17.45;12.47;;;;;;;5.93;95.37;98961.64;1742029;81;20939;-60
2021/03/21 09:24:08;;;;;;;15.43;12.58;;;;;;;5.91;93.64;98959.88;1744210;82;21006;-60
2021/03/21 09:26:45;;;;;;;32.30;22.15;;;;;;;5.86;92.07;98956.30;1722641;82;21017;-60
2021/03/21 09:29:28;;;;;;;18.35;13.72;;;;;;;5.91;91.97;98955.52;1714580;83;20943;-60
2021/03/21 09:32:06;;;;;;;18.15;13.30;;;;;;;6.01;91.52;98942.08;1714544;83;21367;-60
2021/03/21 09:35:20;;;;;;;17.30;13.72;;;;;;;5.98;90.71;98936.81;1714483;83;21608;-59
2021/03/21 09:37:50;;;;;;;15.93;12.80;;;;;;;5.93;88.62;98918.87;1728973;82;20963;-60
2021/03/21 09:40:36;;;;;;;17.20;13.03;;;;;;;5.80;86.36;98926.14;1713773;82;20935;-60
2021/03/21 09:43:15;;;;;;;20.00;15.03;;;;;;;5.77;87.51;98923.50;1732923;82;21026;-59
2021/03/21 09:45:45;;;;;;;24.40;17.50;;;;;;;5.84;87.87;98920.95;1759703;80;21373;-60
2021/03/21 09:48:41;;;;;;;20.55;14.47;;;;;;;5.98;88.20;98921.98;1738604;81;20927;-60
2021/03/21 09:51:16;;;;;;;23.67;17.80;;;;;;;6.10;87.48;98919.89;1726147;82;21466;-59
2021/03/21 09:54:12;;;;;;;22.87;17.35;;;;;;;6.24;86.32;98914.36;1787671;80;21070;-60
2021/03/21 09:57:08;;;;;;;21.62;17.10;;;;;;;6.28;84.76;98912.20;1721431;78;21050;-60
2021/03/21 09:59:56;;;;;;;18.57;13.55;;;;;;;6.26;82.61;98900.84;1700435;83;20958;-59
2021/03/21 10:02:46;;;;;;;16.97;13.32;;;;;;;6.36;82.68;98897.84;1730111;81;20958;-60
2021/03/21 10:05:40;;;;;;;18.30;14.40;;;;;;;6.43;82.48;98890.47;1713994;81;20942;-60
2021/03/21 10:08:21;;;;;;;19.65;15.03;;;;;;;6.44;82.68;98883.48;1661364;82;20957;-60
2021/03/21 10:11:03;;;;;;;18.90;14.70;;;;;;;6.56;83.14;98884.42;1706044;82;21058;-60
2021/03/21 10:13:39;;;;;;;22.82;16.93;;;;;;;6.66;82.25;98883.20;1793250;78;21603;-60
2021/03/21 10:16:19;;;;;;;52.98;32.53;;;;;;;6.68;80.77;98882.77;1789052;78;21002;-60
2021/03/21 10:18:58;;;;;;;25.15;18.02;;;;;;;6.71;80.31;98879.73;1797681;79;21455;-60
2021/03/21 10:21:30;;;;;;;24.57;17.40;;;;;;;6.80;79.49;98871.91;1785368;78;20991;-60
2021/03/21 10:24:06;;;;;;;19.40;14.55;;;;;;;6.88;79.43;98861.02;1775600;79;20876;-60
2021/03/21 10:26:35;;;;;;;17.60;13.98;;;;;;;6.99;78.60;98853.19;1775318;79;21367;-60
2021/03/21 10:29:25;;;;;;;16.57;13.48;;;;;;;7.10;77.42;98856.75;1755521;80;20960;-60
2021/03/21 10:32:22;;;;;;;17.70;13.55;;;;;;;7.15;76.31;98858.95;1704274;82;21129;-60
2021/03/21 10:34:55;;;;;;;16.95;13.93;;;;;;;7.17;75.84;98853.27;1734978;82;21591;-60
2021/03/21 10:37:49;;;;;;;17.82;13.85;;;;;;;7.31;77.96;98832.31;1692074;82;21197;-60
2021/03/21 10:40:30;;;;;;;16.30;12.75;;;;;;;7.48;77.42;98835.84;1738682;82;21341;-59
2021/03/21 10:43:23;;;;;;;18.62;12.93;;;;;;;7.72;76.44;98828.88;1738019;82;21021;-58
2021/03/21 10:45:55;;;;;;;17.40;13.38;;;;;;;7.79;72.82;98832.81;1735599;82;21168;-58
2021/03/21 10:48:30;;;;;;;28.38;13.70;;;;;;;7.71;68.79;98829.75;1737265;81;21054;-58
2021/03/21 10:51:06;;;;;;;16.70;13.13;;;;;;;7.54;68.94;98826.66;1738019;80;21124;-59
2021/03/21 10:53:53;;;;;;;15.28;12.40;;;;;;;7.39;66.97;98820.08;1738052;82;21533;-58
2021/03/21 10:56:26;;;;;;;17.27;13.35;;;;;;;7.26;68.31;98823.56;1737918;80;21105;-58
2021/03/21 10:59:26;;;;;;;16.75;13.05;;;;;;;7.24;68.66;98808.25;1709641;82;21160;-59
2021/03/21 11:02:23;;;;;;;19.70;13.60;;;;;;;7.32;69.36;98801.27;1734169;82;21115;-59
2021/03/21 11:05:02;;;;;;;17.67;13.30;;;;;;;7.49;69.27;98813.09;1737472;80;21143;-59
2021/03/21 11:07:33;;;;;;;15.65;12.95;;;;;;;7.60;67.98;98799.56;1734692;82;21146;-59
2021/03/21 11:10:08;;;;;;;16.48;12.78;;;;;;;7.61;67.28;98794.75;1736847;82;21127;-59
2021/03/21 11:12:40;;;;;;;16.00;12.85;;;;;;;7.62;66.88;98791.69;1737965;82;20998;-59
2021/03/21 11:15:21;;;;;;;16.37;12.33;;;;;;;7.73;68.38;98793.44;1736856;82;21085;-59
2021/03/21 11:17:51;;;;;;;27.95;20.35;;;;;;;7.73;68.38;98793.44;1736510;82;21729;-59
2021/03/21 11:20:30;;;;;;;242.32;138.43;;;;;;;7.82;67.79;98785.98;1716629;82;21374;-59
2021/03/21 11:23:11;;;;;;;179.75;104.25;;;;;;;7.88;67.23;98778.97;1745749;81;21033;-59
2021/03/21 11:25:42;;;;;;;261.50;131.07;;;;;;;7.89;66.40;98780.72;1707997;82;21176;-59
2021/03/21 11:28:36;;;;;;;107.52;48.75;;;;;;;7.85;65.20;98772.85;1737011;80;21152;-58
2021/03/21 11:31:00;;;;;;;151.47;67.37;;;;;;;7.90;66.02;98772.41;1733346;80;21152;-60
2021/03/21 11:33:40;;;;;;;32.75;17.25;;;;;;;8.04;65.03;98767.13;1736822;82;21423;-59
2021/03/21 11:36:21;;;;;;;21.93;14.05;;;;;;;8.11;63.60;98750.06;1738993;82;21156;-59
2021/03/21 11:38:51;;;;;;;17.37;13.32;;;;;;;8.13;64.33;98746.13;1732572;80;21086;-59
2021/03/21 11:41:30;;;;;;;19.75;13.75;;;;;;;8.15;64.62;98745.23;1780258;79;20957;-60
2021/03/21 11:44:21;;;;;;;15.95;12.40;;;;;;;8.11;64.18;98742.19;1784254;79;21186;-59
2021/03/21 11:46:53;;;;;;;17.32;13.83;;;;;;;7.93;62.31;98742.20;1782930;79;21408;-61
2021/03/21 11:49:25;;;;;;;16.85;12.93;;;;;;;7.80;63.67;98733.91;1721573;81;21511;-59
2021/03/21 11:52:02;;;;;;;16.25;12.98;;;;;;;7.75;63.28;98733.05;1730458;82;21192;-59
2021/03/21 11:54:34;;;;;;;17.00;12.90;;;;;;;7.72;63.18;98725.17;1718024;82;21612;-60
2021/03/21 11:57:44;;;;;;;34.00;21.95;;;;;;;7.69;63.12;98710.74;1700334;82;21133;-59
2021/03/21 12:00:33;;;;;;;22.13;15.68;;;;;;;7.58;63.03;98720.82;1715825;81;21366;-60
2021/03/21 12:03:19;;;;;;;27.48;18.42;;;;;;;7.63;64.37;98718.63;1727531;82;21149;-58
2021/03/21 12:06:00;;;;;;;20.05;14.05;;;;;;;7.85;65.42;98712.02;1744522;80;21065;-59
2021/03/21 12:08:38;;;;;;;19.52;15.80;;;;;;;8.01;65.25;98707.59;1744493;81;20935;-60
2021/03/21 12:11:39;;;;;;;16.27;13.22;;;;;;;8.14;63.31;98700.58;1750842;80;21164;-60
2021/03/21 12:14:33;;;;;;;15.32;12.53;;;;;;;8.14;62.23;98695.33;1724105;82;21378;-59
2021/03/21 12:17:26;;;;;;;15.35;11.73;;;;;;;8.24;63.31;98681.71;1692243;83;21240;-58
2021/03/21 12:20:00;;;;;;;15.45;12.73;;;;;;;8.40;60.78;98681.66;1752843;80;21097;-60
2021/03/21 12:22:39;;;;;;;15.75;12.60;;;;;;;8.37;57.41;98682.99;1748479;81;21084;-59
2021/03/21 12:25:31;;;;;;;17.27;13.68;;;;;;;8.24;55.84;98671.20;1700546;83;21493;-59
2021/03/21 12:28:06;;;;;;;16.55;13.00;;;;;;;8.07;54.67;98673.46;1692016;83;21574;-59
2021/03/21 12:30:50;;;;;;;18.52;13.48;;;;;;;7.89;55.34;98659.92;1698414;83;21188;-59
2021/03/21 12:33:31;;;;;;;18.87;14.07;;;;;;;7.71;55.49;98659.98;1689165;83;21230;-59
2021/03/21 12:36:11;;;;;;;28.63;19.53;;;;;;;7.61;56.43;98652.14;1698150;83;21171;-59
2021/03/21 12:38:54;;;;;;;25.43;16.85;;;;;;;7.56;57.51;98649.48;1720237;81;21539;-58
2021/03/21 12:41:42;;;;;;;22.13;16.37;;;;;;;7.63;57.49;98639.88;1736182;82;21380;-59